createdAt,value
2024-05-09T00:00:53.402Z,102714.41
2024-05-09T00:03:23.417Z,102708.56
2024-05-09T00:05:53.732Z,102706.47
2024-05-09T00:08:25.104Z,102700.34
2024-05-09T00:10:55.617Z,102701.03
2024-05-09T00:13:26.154Z,102701.00
2024-05-09T00:15:58.561Z,102697.19
2024-05-09T00:18:28.469Z,102711.16
2024-05-09T00:20:59.254Z,102712.50
2024-05-09T00:23:30.204Z,102709.88
2024-05-09T00:26:01.727Z,102710.34
2024-05-09T00:28:33.589Z,102707.53
2024-05-09T00:31:06.803Z,102702.09
2024-05-09T00:33:38.228Z,102698.09
2024-05-09T00:36:11.434Z,102706.84
2024-05-09T00:38:41.864Z,102706.06
2024-05-09T00:41:12.544Z,102698.06
2024-05-09T00:43:43.508Z,102705.78
2024-05-09T00:46:16.609Z,102700.81
2024-05-09T00:48:46.682Z,102693.78
2024-05-09T00:51:17.052Z,102694.88
2024-05-09T00:53:48.721Z,102698.31
2024-05-09T00:56:19.818Z,102685.78
2024-05-09T00:58:51.468Z,102691.97
2024-05-09T01:01:25.289Z,102694.31
2024-05-09T01:04:01.424Z,102690.88
2024-05-09T01:06:36.259Z,102687.72
2024-05-09T01:09:14.870Z,102688.44
2024-05-09T01:11:47.970Z,102693.06
2024-05-09T01:14:25.728Z,102696.56
2024-05-09T01:16:59.660Z,102704.16
2024-05-09T01:19:31.497Z,102704.25
2024-05-09T01:22:03.094Z,102706.38
2024-05-09T01:24:36.765Z,102709.03
2024-05-09T01:27:09.643Z,102709.88
2024-05-09T01:29:46.110Z,102700.06
2024-05-09T01:32:16.228Z,102700.19
2024-05-09T01:34:49.170Z,102700.56
2024-05-09T01:37:21.587Z,102694.34
2024-05-09T01:39:57.748Z,102703.66
2024-05-09T01:42:27.990Z,102690.78
2024-05-09T01:45:17.777Z,102693.56
2024-05-09T01:48:00.487Z,102698.63
2024-05-09T01:50:38.959Z,102695.56
2024-05-09T01:53:15.276Z,102693.59
2024-05-09T01:55:53.824Z,102693.19
2024-05-09T01:58:28.416Z,102695.91
2024-05-09T02:00:58.655Z,102686.09
2024-05-09T02:03:30.964Z,102686.81
2024-05-09T02:06:05.816Z,102679.06
2024-05-09T02:08:40.905Z,102690.97
2024-05-09T02:11:14.293Z,102682.75
2024-05-09T02:13:44.644Z,102677.72
2024-05-09T02:16:15.710Z,102689.75
2024-05-09T02:18:47.309Z,102690.50
2024-05-09T02:21:18.680Z,102685.75
2024-05-09T02:23:49.928Z,102688.75
2024-05-09T02:26:23.210Z,102691.19
2024-05-09T02:28:53.660Z,102685.69
2024-05-09T02:31:26.136Z,102683.50
2024-05-09T02:33:58.632Z,102686.03
2024-05-09T02:36:31.433Z,102688.06
2024-05-09T02:39:00.278Z,102682.56
2024-05-09T02:41:35.087Z,102681.75
2024-05-09T02:44:03.450Z,102687.94
2024-05-09T02:46:35.627Z,102678.59
2024-05-09T02:49:04.181Z,102680.00
2024-05-09T02:51:39.233Z,102687.38
2024-05-09T02:54:09.993Z,102672.25
2024-05-09T02:56:45.250Z,102673.09
2024-05-09T02:59:14.660Z,102681.84
2024-05-09T03:01:47.061Z,102675.94
2024-05-09T03:04:17.584Z,102677.88
2024-05-09T03:06:50.312Z,102685.50
2024-05-09T03:09:27.563Z,102686.25
2024-05-09T03:12:02.580Z,102687.06
2024-05-09T03:14:36.696Z,102680.53
2024-05-09T03:17:09.711Z,102679.75
2024-05-09T03:19:39.509Z,102684.31
2024-05-09T03:22:09.815Z,102685.72
2024-05-09T03:24:38.018Z,102674.53
2024-05-09T03:27:12.572Z,102683.78
2024-05-09T03:29:40.556Z,102683.47
2024-05-09T03:32:13.638Z,102687.25
2024-05-09T03:34:40.863Z,102688.06
2024-05-09T03:37:11.538Z,102681.19
2024-05-09T03:39:42.362Z,102679.00
2024-05-09T03:42:22.771Z,102681.47
2024-05-09T03:44:56.620Z,102690.41
2024-05-09T03:47:31.500Z,102683.53
2024-05-09T03:50:05.848Z,102685.38
2024-05-09T03:52:37.808Z,102696.97
2024-05-09T03:55:07.255Z,102686.59
2024-05-09T03:57:42.556Z,102679.34
2024-05-09T04:00:39.466Z,102671.69
2024-05-09T04:03:13.573Z,102670.97
2024-05-09T04:05:46.388Z,102685.44
2024-05-09T04:08:19.156Z,102683.09
2024-05-09T04:10:50.823Z,102684.88
2024-05-09T04:13:31.070Z,102682.97
2024-05-09T04:16:12.756Z,102680.28
2024-05-09T04:18:45.329Z,102686.53
2024-05-09T04:21:13.933Z,102678.81
2024-05-09T04:23:46.830Z,102679.34
2024-05-09T04:26:16.124Z,102682.44
2024-05-09T04:28:49.706Z,102682.44
2024-05-09T04:31:16.917Z,102685.91
2024-05-09T04:33:47.319Z,102679.88
2024-05-09T04:36:16.826Z,102677.66
2024-05-09T04:38:51.181Z,102683.41
2024-05-09T04:41:18.680Z,102685.75
2024-05-09T04:43:51.586Z,102686.56
2024-05-09T04:46:36.276Z,102685.16
2024-05-09T04:49:10.085Z,102694.44
2024-05-09T04:51:39.799Z,102679.81
2024-05-09T04:54:22.197Z,102682.63
2024-05-09T04:56:58.580Z,102688.47
2024-05-09T04:59:37.785Z,102689.69
2024-05-09T05:02:08.136Z,102690.53
2024-05-09T05:04:41.812Z,102694.50
2024-05-09T05:07:13.255Z,102691.88
2024-05-09T05:09:45.950Z,102692.34
2024-05-09T05:12:28.459Z,102684.25
2024-05-09T05:15:04.967Z,102682.41
2024-05-09T05:17:38.181Z,102687.94
2024-05-09T05:20:20.884Z,102682.63
2024-05-09T05:22:59.483Z,102681.53
2024-05-09T05:25:35.317Z,102689.69
2024-05-09T05:28:06.853Z,102681.28
2024-05-09T05:30:37.940Z,102695.28
2024-05-09T05:33:10.575Z,102685.25
2024-05-09T05:35:41.400Z,102688.38
2024-05-09T05:38:17.003Z,102695.03
2024-05-09T05:40:55.996Z,102685.38
2024-05-09T05:43:33.869Z,102697.03
2024-05-09T05:46:04.265Z,102690.88
2024-05-09T05:48:36.927Z,102692.03
2024-05-09T05:51:09.901Z,102690.50
2024-05-09T05:53:52.447Z,102695.91
2024-05-09T05:56:23.323Z,102687.38
2024-05-09T05:58:55.303Z,102679.19
2024-05-09T06:01:32.017Z,102695.81
2024-05-09T06:04:10.870Z,102686.88
2024-05-09T06:06:40.983Z,102690.78
2024-05-09T06:09:10.764Z,102690.34
2024-05-09T06:11:40.533Z,102689.53
2024-05-09T06:14:13.944Z,102681.38
2024-05-09T06:16:50.668Z,102689.38
2024-05-09T06:19:22.967Z,102685.84
2024-05-09T06:21:55.163Z,102690.47
2024-05-09T06:24:28.497Z,102684.50
2024-05-09T06:27:00.361Z,102687.56
2024-05-09T06:29:35.371Z,102684.31
2024-05-09T06:32:08.115Z,102681.13
2024-05-09T06:34:42.715Z,102686.47
2024-05-09T06:37:11.473Z,102676.31
2024-05-09T06:39:41.262Z,102681.94
2024-05-09T06:42:12.220Z,102679.88
2024-05-09T06:44:56.184Z,102686.69
2024-05-09T06:47:37.711Z,102680.69
2024-05-09T06:50:27.919Z,102672.81
2024-05-09T06:53:03.736Z,102680.03
2024-05-09T06:55:36.408Z,102680.31
2024-05-09T06:58:13.090Z,102675.16
2024-05-09T07:00:54.838Z,102668.69
2024-05-09T07:03:25.970Z,102672.94
2024-05-09T07:06:03.974Z,102676.59
2024-05-09T07:08:48.697Z,102672.25
2024-05-09T07:11:53.384Z,102672.50
2024-05-09T07:14:32.340Z,102677.59
2024-05-09T07:17:12.290Z,102686.00
2024-05-09T07:19:51.974Z,102676.16
2024-05-09T07:22:23.066Z,102675.97
2024-05-09T07:24:50.256Z,102681.84
2024-05-09T07:27:20.923Z,102675.88
2024-05-09T07:29:48.204Z,102677.03
2024-05-09T07:32:34.085Z,102673.94
2024-05-09T07:35:12.802Z,102681.38
2024-05-09T07:37:50.173Z,102666.72
2024-05-09T07:40:36.182Z,102672.94
2024-05-09T07:43:12.556Z,102675.78
2024-05-09T07:45:53.658Z,102678.91
2024-05-09T07:50:34.426Z,102676.34
2024-05-09T07:53:20.358Z,102669.56
2024-05-09T07:54:43.805Z,102675.44
2024-05-09T07:57:27.458Z,102676.09
2024-05-09T07:59:59.583Z,102679.59
2024-05-09T08:02:27.615Z,102678.09
2024-05-09T08:05:05.989Z,102675.91
2024-05-09T08:07:51.155Z,102672.97
2024-05-09T08:10:44.945Z,102675.22
2024-05-09T08:13:12.843Z,102664.84
2024-05-09T08:15:44.319Z,102670.94
2024-05-09T08:18:12.506Z,102667.50
2024-05-09T08:20:55.027Z,102661.66
2024-05-09T08:23:24.902Z,102656.69
2024-05-09T08:25:55.762Z,102659.47
2024-05-09T08:28:23.059Z,102658.13
2024-05-09T08:30:53.332Z,102650.38
2024-05-09T08:33:20.902Z,102651.53
2024-05-09T08:35:51.258Z,102650.59
2024-05-09T08:38:18.843Z,102653.44
2024-05-09T08:40:51.706Z,102653.03
2024-05-09T08:43:20.540Z,102655.88
2024-05-09T08:45:52.394Z,102650.75
2024-05-09T08:48:20.205Z,102645.75
2024-05-09T08:50:50.614Z,102653.66
2024-05-09T08:53:18.032Z,102648.28
2024-05-09T08:55:52.236Z,102660.56
2024-05-09T08:58:20.252Z,102661.66
2024-05-09T09:00:50.735Z,102654.44
2024-05-09T09:03:19.449Z,102647.19
2024-05-09T09:06:00.412Z,102647.75
2024-05-09T09:08:30.071Z,102646.25
2024-05-09T09:11:02.691Z,102655.53
2024-05-09T09:13:31.340Z,102645.31
2024-05-09T09:16:03.135Z,102659.13
2024-05-09T09:18:31.483Z,102654.84
2024-05-09T09:21:03.435Z,102651.06
2024-05-09T09:23:34.337Z,102647.44
2024-05-09T09:26:07.169Z,102642.56
2024-05-09T09:28:38.094Z,102643.09
2024-05-09T09:31:08.974Z,102641.56
2024-05-09T09:33:57.875Z,102643.53
2024-05-09T09:36:39.723Z,102632.50
2024-05-09T09:39:17.182Z,102638.88
2024-05-09T09:41:55.805Z,102641.72
2024-05-09T09:44:39.687Z,102640.50
2024-05-09T09:47:29.488Z,102627.75
2024-05-09T09:50:16.876Z,102634.44
2024-05-09T09:52:57.314Z,102632.34
2024-05-09T09:55:33.223Z,102629.22
2024-05-09T09:58:11.973Z,102622.69
2024-05-09T10:00:48.237Z,102624.94
2024-05-09T10:03:18.135Z,102629.25
2024-05-09T10:05:47.280Z,102626.25
2024-05-09T10:08:18.351Z,102628.88
2024-05-09T10:10:50.765Z,102630.47
2024-05-09T10:13:35.304Z,102615.72
2024-05-09T10:16:10.789Z,102626.56
2024-05-09T10:19:04.425Z,102630.31
2024-05-09T10:21:34.195Z,102622.41
2024-05-09T10:24:19.386Z,102616.38
2024-05-09T10:26:56.169Z,102606.22
2024-05-09T10:29:29.991Z,102598.84
2024-05-09T10:32:00.127Z,102602.06
2024-05-09T10:34:51.534Z,102605.59
2024-05-09T10:37:20.982Z,102605.50
2024-05-09T10:39:53.621Z,102598.22
2024-05-09T10:42:23.024Z,102602.44
2024-05-09T10:44:58.920Z,102587.75
2024-05-09T10:47:32.527Z,102588.75
2024-05-09T10:50:07.836Z,102591.03
2024-05-09T10:52:38.758Z,102594.72
2024-05-09T10:55:09.375Z,102587.84
2024-05-09T10:57:43.869Z,102591.84
2024-05-09T11:00:27.848Z,102594.44
2024-05-09T11:03:04.512Z,102577.66
2024-05-09T11:05:50.760Z,102594.22
2024-05-09T11:08:22.448Z,102588.06
2024-05-09T11:10:53.538Z,102573.94
2024-05-09T11:13:32.074Z,102575.75
2024-05-09T11:16:04.719Z,102574.88
2024-05-09T11:18:38.350Z,102563.63
2024-05-09T11:21:13.219Z,102566.50
2024-05-09T11:23:43.455Z,102561.59
2024-05-09T11:26:11.313Z,102560.69
2024-05-09T11:28:43.573Z,102559.81
2024-05-09T11:31:13.472Z,102560.25
2024-05-09T11:33:45.823Z,102556.97
2024-05-09T11:36:13.261Z,102553.19
2024-05-09T11:38:44.330Z,102551.19
2024-05-09T11:41:17.320Z,102551.81
2024-05-09T11:43:47.003Z,102547.44
2024-05-09T11:46:17.020Z,102553.72
2024-05-09T11:48:46.850Z,102556.66
2024-05-09T11:51:14.014Z,102545.19
2024-05-09T11:53:43.591Z,102543.66
2024-05-09T11:56:19.773Z,102541.19
2024-05-09T11:58:50.905Z,102534.53
2024-05-09T12:01:25.294Z,102539.03
2024-05-09T12:04:00.027Z,102540.50
2024-05-09T12:06:29.531Z,102537.75
2024-05-09T12:09:00.446Z,102532.09
2024-05-09T12:11:28.248Z,102536.47
2024-05-09T12:13:59.755Z,102539.56
2024-05-09T12:16:31.390Z,102523.72
2024-05-09T12:22:03.492Z,102528.19
2024-05-09T12:24:30.869Z,102524.72
2024-05-09T12:27:00.494Z,102524.69
2024-05-09T12:38:21.048Z,102516.56
2024-05-09T13:05:32.406Z,102499.38
2024-05-09T13:08:00.819Z,102498.84
2024-05-09T13:10:33.583Z,102495.38
2024-05-09T13:13:03.946Z,102493.59
2024-05-09T13:15:39.842Z,102491.63
2024-05-09T13:18:09.292Z,102500.88
2024-05-09T13:20:43.683Z,102493.28
2024-05-09T13:23:14.283Z,102484.91
2024-05-09T13:25:43.867Z,102490.06
2024-05-09T13:28:10.867Z,102475.91
2024-05-09T13:30:42.119Z,102471.22
2024-05-09T13:33:10.653Z,102474.25
2024-05-09T13:35:47.676Z,102478.97
2024-05-09T13:38:17.714Z,102478.97
2024-05-09T13:40:47.807Z,102468.34
2024-05-09T13:43:15.270Z,102467.91
2024-05-09T13:45:45.215Z,102460.06
2024-05-09T13:48:12.760Z,102462.84
2024-05-09T13:50:45.184Z,102454.16
2024-05-09T13:53:12.085Z,102449.22
2024-05-09T13:55:41.849Z,102454.72
2024-05-09T13:58:10.051Z,102444.22
2024-05-09T14:00:46.631Z,102444.00
2024-05-09T14:03:17.634Z,102442.97
2024-05-09T14:05:52.580Z,102445.97
2024-05-09T14:08:21.466Z,102444.66
2024-05-09T14:10:52.264Z,102433.50
2024-05-09T14:13:19.930Z,102443.56
2024-05-09T14:15:49.843Z,102445.94
2024-05-09T14:18:17.318Z,102439.34
2024-05-09T14:20:46.973Z,102425.16
2024-05-09T14:23:17.896Z,102442.38
2024-05-09T14:25:51.204Z,102435.34
2024-05-09T14:28:19.688Z,102441.56
2024-05-09T14:30:49.503Z,102435.53
2024-05-09T14:33:22.279Z,102437.38
2024-05-09T14:35:52.032Z,102433.94
2024-05-09T14:38:21.684Z,102419.59
2024-05-09T14:40:51.468Z,102428.47
2024-05-09T14:43:18.765Z,102415.31
2024-05-09T14:45:49.004Z,102413.09
2024-05-09T14:48:16.222Z,102413.53
2024-05-09T14:50:45.884Z,102417.19
2024-05-09T14:53:13.741Z,102410.75
2024-05-09T14:55:46.399Z,102424.47
2024-05-09T14:58:13.753Z,102406.97
2024-05-09T15:00:48.209Z,102417.19
2024-05-09T15:03:18.609Z,102398.66
2024-05-09T15:05:49.325Z,102402.38
2024-05-09T15:08:17.345Z,102401.53
2024-05-09T15:10:50.655Z,102398.66
2024-05-09T15:13:18.139Z,102395.06
2024-05-09T15:15:48.296Z,102398.84
2024-05-09T15:18:15.981Z,102400.84
2024-05-09T15:20:46.135Z,102396.03
2024-05-09T15:23:13.321Z,102396.38
2024-05-09T15:25:44.676Z,102397.66
2024-05-09T15:28:14.527Z,102393.81
2024-05-09T15:30:46.521Z,102404.66
2024-05-09T15:34:24.831Z,102400.44
2024-05-09T15:37:18.148Z,102398.50
2024-05-09T15:40:18.291Z,102396.13
2024-05-09T15:46:30.016Z,102391.28
2024-05-09T15:49:01.012Z,102388.38
2024-05-09T15:51:28.308Z,102387.75
2024-05-09T15:53:57.857Z,102383.50
2024-05-09T15:56:24.968Z,102379.09
2024-05-09T15:58:57.152Z,102377.47
2024-05-09T16:01:24.260Z,102379.78
2024-05-09T16:04:04.416Z,102377.38
2024-05-09T16:06:33.681Z,102375.13
2024-05-09T16:09:03.344Z,102363.31
2024-05-09T16:11:30.346Z,102381.16
2024-05-09T16:14:02.552Z,102375.88
2024-05-09T16:16:29.653Z,102366.53
2024-05-09T16:18:59.372Z,102373.09
2024-05-09T16:21:26.582Z,102366.13
2024-05-09T16:23:56.130Z,102366.50
2024-05-09T16:26:23.087Z,102369.00
2024-05-09T16:28:52.740Z,102360.81
2024-05-09T16:31:22.424Z,102364.34
2024-05-09T16:33:52.247Z,102366.31
2024-05-09T16:36:19.371Z,102367.97
2024-05-09T16:38:48.894Z,102365.09
2024-05-09T16:41:15.949Z,102363.28
2024-05-09T16:43:45.751Z,102365.19
2024-05-09T16:46:12.700Z,102367.91
2024-05-09T16:48:45.783Z,102357.78
2024-05-09T16:51:13.089Z,102362.88
2024-05-09T16:53:43.131Z,102358.41
2024-05-09T16:56:10.206Z,102360.53
2024-05-09T16:58:39.827Z,102362.28
2024-05-09T17:01:06.959Z,102360.13
2024-05-09T17:03:36.784Z,102357.81
2024-05-09T17:06:06.630Z,102363.28
2024-05-09T17:08:37.629Z,102367.34
2024-05-09T17:11:05.154Z,102361.72
2024-05-09T17:13:39.216Z,102367.28
2024-05-09T17:16:10.798Z,102362.56
2024-05-09T17:18:40.477Z,102364.09
2024-05-09T17:21:10.101Z,102363.59
2024-05-09T17:23:39.709Z,102361.56
2024-05-09T17:55:44.540Z,102346.16
2024-05-09T18:48:41.859Z,102340.41
2024-05-09T18:51:08.937Z,102339.72
2024-05-09T18:53:38.485Z,102339.38
2024-05-09T18:56:08.558Z,102340.69
2024-05-09T18:59:42.647Z,102335.34
2024-05-09T19:14:11.809Z,102345.00
2024-05-09T19:16:52.464Z,102342.03
2024-05-09T19:19:33.366Z,102343.81
2024-05-09T19:35:22.648Z,102349.56
2024-05-09T19:38:46.275Z,102346.75
2024-05-09T19:45:19.886Z,102349.13
2024-05-09T19:47:58.614Z,102355.25
2024-05-09T19:50:39.724Z,102353.72
2024-05-09T19:53:15.251Z,102355.66
2024-05-09T19:55:55.146Z,102348.44
2024-05-09T19:59:25.851Z,102356.19
2024-05-09T20:13:26.286Z,102352.03
2024-05-09T20:15:54.911Z,102352.03
2024-05-09T20:18:34.920Z,102343.06
2024-05-09T20:24:37.425Z,102345.38
2024-05-09T20:27:12.717Z,102349.03
2024-05-09T20:29:41.766Z,102346.97
2024-05-09T20:32:12.459Z,102344.69
2024-05-09T20:37:57.831Z,102346.69
2024-05-09T20:40:37.971Z,102347.47
2024-05-09T20:43:19.527Z,102344.69
2024-05-09T20:45:59.817Z,102349.00
2024-05-09T20:48:38.932Z,102339.47
2024-05-09T20:51:06.442Z,102339.38
2024-05-09T20:53:38.394Z,102348.09
2024-05-09T20:56:07.784Z,102350.38
2024-05-09T20:58:42.059Z,102344.16
2024-05-09T21:01:09.351Z,102338.00
2024-05-09T21:03:41.398Z,102338.47
2024-05-09T21:06:08.651Z,102341.97
2024-05-09T21:08:38.658Z,102340.97
2024-05-09T21:11:05.849Z,102355.16
2024-05-09T21:13:35.762Z,102348.09
2024-05-09T21:16:06.345Z,102352.44
2024-05-09T21:18:38.259Z,102342.63
2024-05-09T21:21:06.516Z,102350.97
2024-05-09T21:23:37.649Z,102353.28
2024-05-09T21:26:06.529Z,102348.53
2024-05-09T21:28:39.655Z,102348.19
2024-05-09T21:31:09.702Z,102346.19
2024-05-09T21:33:40.259Z,102343.97
2024-05-09T21:36:11.897Z,102346.28
2024-05-09T21:38:42.388Z,102336.81
2024-05-09T21:41:12.291Z,102347.25
2024-05-09T21:43:39.771Z,102339.19
2024-05-09T21:46:12.698Z,102334.78
2024-05-09T21:48:40.571Z,102330.59
2024-05-09T21:51:16.309Z,102335.63
2024-05-09T21:53:44.313Z,102339.38
2024-05-09T21:56:14.904Z,102330.69
2024-05-09T21:58:42.413Z,102325.66
2024-05-09T22:01:15.562Z,102332.53
2024-05-09T22:03:43.316Z,102322.47
2024-05-09T22:06:13.571Z,102331.94
2024-05-09T22:08:41.026Z,102327.53
2024-05-09T22:11:11.681Z,102334.53
2024-05-09T22:13:39.215Z,102327.25
2024-05-09T22:16:10.485Z,102326.03
2024-05-09T22:18:40.684Z,102324.25
2024-05-09T22:21:10.749Z,102321.75
2024-05-09T22:23:38.257Z,102321.94
2024-05-09T22:26:10.355Z,102323.78
2024-05-09T22:28:38.497Z,102324.16
2024-05-09T22:31:08.296Z,102323.13
2024-05-09T22:33:35.597Z,102322.97
2024-05-09T22:36:10.284Z,102322.75
2024-05-09T22:38:37.450Z,102324.84
2024-05-09T22:41:08.695Z,102324.47
2024-05-09T22:43:36.057Z,102325.34
2024-05-09T22:46:06.768Z,102326.59
2024-05-09T22:48:35.544Z,102320.53
2024-05-09T22:51:09.692Z,102319.63
2024-05-09T22:53:37.166Z,102313.88
2024-05-09T22:56:07.240Z,102317.88
2024-05-09T22:58:34.787Z,102321.19
2024-05-09T23:01:06.679Z,102314.47
2024-05-09T23:03:34.732Z,102311.22
2024-05-09T23:06:11.522Z,102298.75
2024-05-09T23:08:38.694Z,102303.03
2024-05-09T23:11:09.000Z,102294.91
2024-05-09T23:13:36.831Z,102304.69
2024-05-09T23:16:07.111Z,102300.84
2024-05-09T23:18:35.098Z,102297.16
2024-05-09T23:21:04.980Z,102294.97
2024-05-09T23:23:34.811Z,102294.44
2024-05-09T23:26:05.753Z,102290.25
2024-05-09T23:28:34.016Z,102290.13
2024-05-09T23:31:04.527Z,102281.78
2024-05-09T23:33:31.986Z,102285.84
2024-05-09T23:36:02.638Z,102284.34
2024-05-09T23:38:30.214Z,102268.81
2024-05-09T23:41:04.254Z,102275.75
2024-05-09T23:43:31.524Z,102270.56
2024-05-09T23:46:01.707Z,102266.91
2024-05-09T23:48:30.314Z,102276.38
2024-05-09T23:51:01.737Z,102272.09
2024-05-09T23:53:29.100Z,102269.78
2024-05-09T23:56:02.096Z,102270.97
2024-05-09T23:58:29.884Z,102276.38
